Time;durP1;ratioP1;P1;durP2;ratioP2;P2;SDS_P1;SDS_P2;PMS_P1;PMS_P2;Temp;Humidity;BMP_temperature;BMP_pressure;BME280_temperature;BME280_humidity;BME280_pressure;Samples;Min_cycle;Max_cycle;Signal;HPM_P1;HPM_P2
2023/11/22 00:04:00;;;;;;;8.35;5.88;;;;;;;3.01;88.02;101525.50;10332933;28;20110;-82
2023/11/22 00:09:04;;;;;;;12.07;5.68;;;;;;;3.00;88.19;101539.72;10335579;28;20080;-80
2023/11/22 00:14:08;;;;;;;14.40;6.68;;;;;;;2.93;88.33;101551.44;10350410;28;20053;-81
2023/11/22 00:19:11;;;;;;;8.93;6.13;;;;;;;2.82;88.42;101557.94;10345116;28;20054;-80
2023/11/22 00:24:14;;;;;;;9.30;5.35;;;;;;;2.86;88.81;101566.69;10347187;28;20152;-81
2023/11/22 00:29:21;;;;;;;8.25;5.72;;;;;;;2.87;88.71;101573.72;10349189;28;20080;-81
2023/11/22 00:34:24;;;;;;;9.88;6.05;;;;;;;2.93;88.74;101560.25;10353120;28;20046;-81
2023/11/22 00:39:27;;;;;;;9.88;5.95;;;;;;;3.04;88.59;101570.53;10334620;28;20042;-81
2023/11/22 00:44:31;;;;;;;8.10;5.60;;;;;;;3.13;88.38;101575.59;10361744;28;20049;-82
2023/11/22 00:49:34;;;;;;;11.00;6.50;;;;;;;3.14;87.93;101581.78;10347775;28;20054;-81
2023/11/22 00:54:37;;;;;;;11.80;6.65;;;;;;;3.12;88.18;101581.81;10348415;28;20141;-79
2023/11/22 00:59:41;;;;;;;9.52;5.72;;;;;;;3.00;87.21;101595.47;10345359;28;20065;-80
2023/11/22 01:04:45;;;;;;;8.55;5.20;;;;;;;2.81;87.15;101603.97;10357084;28;20529;-80
2023/11/22 01:09:48;;;;;;;10.50;5.30;;;;;;;2.73;87.15;101613.94;10394139;28;20052;-82
2023/11/22 01:14:53;;;;;;;7.97;5.55;;;;;;;2.22;88.20;101619.72;10369377;28;20057;-80
2023/11/22 01:19:58;;;;;;;10.20;5.80;;;;;;;2.05;89.31;101620.19;10352527;28;20137;-80
2023/11/22 01:25:02;;;;;;;9.45;6.20;;;;;;;2.15;89.60;101604.91;10356435;28;20041;-81
2023/11/22 01:30:08;;;;;;;8.35;5.32;;;;;;;2.28;89.42;101594.84;10371529;28;20105;-81
2023/11/22 01:35:11;;;;;;;9.35;6.00;;;;;;;2.31;88.99;101606.25;10375658;28;20051;-81
2023/11/22 01:40:14;;;;;;;8.07;5.05;;;;;;;2.33;88.93;101604.44;10351532;28;20524;-80
2023/11/22 01:45:19;;;;;;;9.48;5.25;;;;;;;2.25;88.25;101585.19;10341375;28;20080;-82
2023/11/22 01:50:22;;;;;;;8.85;5.43;;;;;;;2.24;88.20;101583.44;10383164;28;20060;-81
2023/11/22 01:55:25;;;;;;;6.90;5.00;;;;;;;2.11;87.53;101582.94;10394915;28;20109;-81
2023/11/22 02:00:36;;;;;;;6.47;4.88;;;;;;;2.05;87.83;101588.38;10375849;28;20060;-80
2023/11/22 02:05:42;;;;;;;7.30;4.93;;;;;;;2.00;88.00;101602.66;10352683;28;20074;-79
2023/11/22 02:10:49;;;;;;;6.90;4.68;;;;;;;1.73;87.68;101619.22;10363667;28;20788;-82
2023/11/22 02:15:55;;;;;;;10.30;5.43;;;;;;;1.56;88.47;101631.97;10339534;28;20481;-80
2023/11/22 02:20:59;;;;;;;8.02;5.00;;;;;;;1.56;88.43;101647.00;10342484;28;20827;-82
2023/11/22 02:26:03;;;;;;;9.10;5.85;;;;;;;1.52;88.97;101642.72;10362634;28;20044;-83
2023/11/22 02:31:06;;;;;;;7.55;5.05;;;;;;;1.66;89.36;101649.41;10349477;28;20045;-83
2023/11/22 02:36:12;;;;;;;11.15;5.55;;;;;;;1.69;88.68;101653.75;10364666;28;20041;-82
2023/11/22 02:41:16;;;;;;;10.35;6.00;;;;;;;1.70;88.38;101660.78;10363646;28;20057;-83
2023/11/22 02:46:20;;;;;;;8.27;4.95;;;;;;;1.66;87.85;101669.72;10352049;28;20425;-81
2023/11/22 02:51:23;;;;;;;9.13;4.85;;;;;;;1.60;87.33;101665.44;10371178;28;20046;-82
2023/11/22 02:56:27;;;;;;;7.70;4.80;;;;;;;1.52;87.23;101667.41;10361102;28;20053;-83
2023/11/22 03:01:30;;;;;;;11.63;4.97;;;;;;;1.42;87.47;101679.97;10368278;28;20108;-82
2023/11/22 03:06:33;;;;;;;6.93;4.63;;;;;;;1.46;87.45;101684.31;10377998;28;20045;-81
2023/11/22 03:11:39;;;;;;;9.27;5.15;;;;;;;1.53;87.69;101692.09;10363022;28;20108;-83
2023/11/22 03:16:43;;;;;;;7.88;5.20;;;;;;;1.42;86.94;101701.16;10346958;28;20053;-82
2023/11/22 03:21:46;;;;;;;7.85;4.93;;;;;;;1.33;87.31;101706.66;10360829;28;20079;-83
2023/11/22 03:26:52;;;;;;;11.82;4.50;;;;;;;1.31;87.87;101689.06;10367547;28;20418;-82
2023/11/22 03:31:55;;;;;;;8.18;4.97;;;;;;;1.20;88.17;101691.94;10353062;28;20073;-82
2023/11/22 03:36:58;;;;;;;5.90;4.95;;;;;;;1.22;88.41;101695.44;10335271;28;20054;-82
2023/11/22 03:42:02;;;;;;;11.10;6.18;;;;;;;1.26;88.95;101707.69;10378944;28;21138;-81
2023/11/22 03:47:06;;;;;;;12.30;5.20;;;;;;;1.39;89.03;101711.81;10361497;28;20050;-82
2023/11/22 03:52:11;;;;;;;12.90;6.10;;;;;;;1.38;88.35;101720.69;10371001;28;20053;-80
2023/11/22 03:57:16;;;;;;;11.10;5.85;;;;;;;1.32;88.22;101734.06;10380022;28;20406;-83
2023/11/22 04:02:19;;;;;;;9.45;5.45;;;;;;;1.22;88.03;101738.66;10421881;28;20532;-80
2023/11/22 04:07:23;;;;;;;11.15;6.20;;;;;;;1.11;87.95;101745.09;10376169;28;20081;-83
2023/11/22 04:12:27;;;;;;;9.88;6.13;;;;;;;1.12;88.14;101754.75;10367260;28;20107;-82
2023/11/22 04:17:30;;;;;;;15.07;5.97;;;;;;;1.05;88.05;101749.59;10374335;28;20081;-83
2023/11/22 04:22:34;;;;;;;12.55;6.20;;;;;;;0.99;88.02;101744.44;10364321;28;20049;-82
2023/11/22 04:27:38;;;;;;;9.70;5.05;;;;;;;0.96;87.93;101740.94;10374884;28;20052;-81
2023/11/22 04:32:41;;;;;;;10.15;5.53;;;;;;;1.00;88.46;101762.03;10359147;28;20057;-84
2023/11/22 04:37:46;;;;;;;8.13;5.18;;;;;;;0.90;88.28;101763.09;10352789;28;20049;-81
2023/11/22 04:42:51;;;;;;;10.25;5.78;;;;;;;0.99;88.63;101757.66;10344880;28;20049;-80
2023/11/22 04:47:56;;;;;;;10.77;6.18;;;;;;;1.06;88.42;101766.34;10361170;28;20053;-84
2023/11/22 04:53:01;;;;;;;9.40;5.75;;;;;;;0.98;88.17;101763.84;10358590;28;20053;-82
2023/11/22 04:58:05;;;;;;;7.80;5.55;;;;;;;1.03;88.37;101774.34;10352382;28;20410;-83
2023/11/22 05:03:08;;;;;;;11.63;6.88;;;;;;;1.04;88.32;101755.78;10366241;28;20053;-84
2023/11/22 05:08:11;;;;;;;10.77;6.80;;;;;;;0.96;88.21;101765.66;10354538;28;20139;-81
2023/11/22 05:13:16;;;;;;;13.02;6.53;;;;;;;0.95;87.93;101773.63;10356509;28;20056;-83
2023/11/22 05:18:19;;;;;;;11.20;5.65;;;;;;;0.84;87.69;101771.16;10344804;28;20049;-83
2023/11/22 05:23:21;;;;;;;10.13;6.03;;;;;;;0.71;87.29;101778.44;10347246;28;20725;-83
2023/11/22 05:28:26;;;;;;;12.70;5.90;;;;;;;0.57;87.66;101809.56;10361853;28;20258;-81
2023/11/22 05:33:29;;;;;;;8.93;5.28;;;;;;;0.55;87.96;101813.97;10353415;28;20502;-83
2023/11/22 05:38:33;;;;;;;10.65;6.35;;;;;;;0.61;88.29;101809.47;10356589;28;20045;-83
2023/11/22 05:43:39;;;;;;;10.85;6.53;;;;;;;0.54;88.43;101821.06;10358358;28;20045;-82
2023/11/22 05:48:41;;;;;;;16.55;6.75;;;;;;;0.56;88.65;101802.53;10353522;28;20052;-82
2023/11/22 05:53:45;;;;;;;12.63;6.60;;;;;;;0.62;88.65;101799.78;10357839;28;20165;-81
2023/11/22 05:58:49;;;;;;;10.90;6.70;;;;;;;0.60;88.48;101797.16;10364540;28;20053;-83
2023/11/22 06:03:52;;;;;;;11.82;6.80;;;;;;;0.60;88.87;101813.03;10364999;28;20050;-83
2023/11/22 06:08:55;;;;;;;13.27;7.50;;;;;;;0.64;89.03;101813.84;10382794;28;20041;-82
2023/11/22 06:13:59;;;;;;;11.93;6.70;;;;;;;0.64;88.73;101826.22;10369905;28;20071;-83
2023/11/22 06:19:02;;;;;;;14.23;6.78;;;;;;;0.49;87.86;101825.53;10385669;28;20123;-83
2023/11/22 06:24:08;;;;;;;13.25;6.72;;;;;;;0.25;87.76;101826.81;10352794;28;20053;-81
2023/11/22 06:29:12;;;;;;;10.07;6.45;;;;;;;0.08;87.74;101834.09;10377678;28;20060;-81
2023/11/22 06:34:15;;;;;;;10.38;7.07;;;;;;;-0.44;90.14;101829.50;10363986;28;20137;-82
2023/11/22 06:39:18;;;;;;;17.88;8.15;;;;;;;-0.57;91.82;101808.56;10361379;28;20054;-81
2023/11/22 06:44:24;;;;;;;13.95;7.13;;;;;;;-0.63;91.93;101813.00;10375340;28;20050;-82
2023/11/22 06:49:26;;;;;;;13.02;6.85;;;;;;;-0.76;92.56;101809.66;10375055;28;20108;-81
2023/11/22 06:54:29;;;;;;;13.43;8.30;;;;;;;-0.72;92.60;101806.09;10369184;28;20049;-81
2023/11/22 06:59:33;;;;;;;14.70;7.60;;;;;;;-0.71;93.01;101797.28;10344275;28;20046;-83
2023/11/22 07:04:37;;;;;;;16.00;8.43;;;;;;;-0.50;93.56;101796.13;10341354;28;20625;-82
2023/11/22 07:09:43;;;;;;;13.15;8.20;;;;;;;-0.32;93.22;101819.69;10345373;28;20553;-80
2023/11/22 07:14:49;;;;;;;16.85;8.35;;;;;;;-0.37;92.28;101821.50;10355736;28;20050;-82
2023/11/22 07:19:53;;;;;;;16.27;8.70;;;;;;;-0.68;93.59;101828.94;10350447;28;20137;-82
2023/11/22 07:24:59;;;;;;;7.28;4.32;;;;;;;-0.34;96.47;101820.59;10361586;28;20044;-80
2023/11/22 07:30:05;;;;;;;24.67;11.75;;;;;;;0.88;94.29;101831.06;10378486;28;20042;-80
2023/11/22 07:35:09;;;;;;;24.00;14.07;;;;;;;2.10;89.95;101819.75;10399146;28;20061;-81
2023/11/22 07:40:13;;;;;;;15.60;9.90;;;;;;;2.06;81.41;101820.75;10365855;28;20049;-81
2023/11/22 07:45:18;;;;;;;8.93;6.07;;;;;;;1.64;82.12;101830.50;10365331;28;20056;-79
2023/11/22 07:50:24;;;;;;;8.52;6.68;;;;;;;1.54;81.82;101823.63;10367353;28;20057;-80
2023/11/22 07:55:27;;;;;;;8.85;6.38;;;;;;;1.24;83.45;101837.47;10364929;28;20057;-81
2023/11/22 08:00:31;;;;;;;8.90;6.13;;;;;;;1.20;84.50;101856.94;10354880;28;20049;-81
2023/11/22 08:05:36;;;;;;;10.88;6.63;;;;;;;1.52;85.17;101851.94;10353410;28;20507;-81
2023/11/22 08:10:39;;;;;;;15.80;8.07;;;;;;;2.18;85.20;101862.88;10384610;28;21076;-83
2023/11/22 08:15:45;;;;;;;14.45;8.25;;;;;;;2.73;82.16;101858.06;10348846;28;20509;-82
2023/11/22 08:20:48;;;;;;;11.32;7.28;;;;;;;3.24;80.39;101849.69;10338329;28;20068;-83
2023/11/22 08:25:56;;;;;;;13.43;7.25;;;;;;;3.92;77.97;101861.94;10357990;28;20045;-80
2023/11/22 08:31:00;;;;;;;11.48;6.68;;;;;;;4.43;75.91;101849.72;10366326;28;20713;-82
2023/11/22 08:36:04;;;;;;;11.18;5.95;;;;;;;4.59;74.11;101863.41;10364537;28;20641;-81
2023/11/22 08:41:08;;;;;;;13.27;7.28;;;;;;;5.06;72.64;101877.81;10366054;28;20207;-80
2023/11/22 08:46:13;;;;;;;12.07;6.68;;;;;;;5.14;72.18;101880.22;10360893;28;20045;-82
2023/11/22 08:51:17;;;;;;;11.38;6.18;;;;;;;4.80;71.65;101876.00;10364148;28;20135;-81
2023/11/22 08:56:20;;;;;;;9.70;7.13;;;;;;;4.60;72.52;101907.72;10359312;28;20559;-82
2023/11/22 09:01:25;;;;;;;11.70;7.95;;;;;;;4.54;73.47;101911.44;10363649;28;20215;-83
2023/11/22 09:06:29;;;;;;;15.70;7.38;;;;;;;4.35;72.94;101919.13;10395319;28;20068;-80
2023/11/22 09:11:34;;;;;;;11.27;7.13;;;;;;;4.32;73.95;101913.03;10419601;28;20064;-81
2023/11/22 09:16:39;;;;;;;10.48;7.45;;;;;;;4.30;73.30;101875.81;10403772;28;20049;-80
2023/11/22 09:21:42;;;;;;;13.57;8.18;;;;;;;4.33;74.19;101877.53;10359563;28;20044;-81
2023/11/22 09:26:46;;;;;;;12.43;7.55;;;;;;;4.36;74.11;101894.28;10347325;28;21175;-82
2023/11/22 09:31:52;;;;;;;11.63;8.07;;;;;;;4.30;73.98;101893.59;10331753;28;20042;-82
2023/11/22 09:36:55;;;;;;;17.75;7.88;;;;;;;4.30;74.37;101875.81;10341100;28;22152;-81
2023/11/22 09:41:58;;;;;;;12.45;7.68;;;;;;;4.71;73.63;101878.97;10358055;28;20054;-83
2023/11/22 09:47:04;;;;;;;12.30;7.75;;;;;;;4.97;71.64;101877.25;10379461;28;20041;-83
2023/11/22 09:52:15;;;;;;;11.48;7.05;;;;;;;5.14;70.78;101895.34;10359251;28;20052;-83
2023/11/22 09:57:20;;;;;;;9.40;6.10;;;;;;;4.88;69.19;101883.72;10358909;28;20064;-82
2023/11/22 10:02:27;;;;;;;10.55;6.15;;;;;;;4.73;69.25;101876.25;10345447;28;20049;-82
2023/11/22 10:07:30;;;;;;;9.80;6.68;;;;;;;4.60;69.51;101883.75;10344287;28;20100;-81
2023/11/22 10:12:36;;;;;;;11.13;6.70;;;;;;;4.50;71.25;101867.22;10375072;28;20034;-82
2023/11/22 10:17:40;;;;;;;9.00;5.90;;;;;;;4.68;71.68;101867.53;10408625;28;20045;-81
2023/11/22 10:22:48;;;;;;;11.23;5.80;;;;;;;4.77;68.95;101869.91;10386417;28;20049;-82
2023/11/22 10:27:51;;;;;;;11.63;5.38;;;;;;;4.86;66.73;101868.75;10385049;28;21185;-81
2023/11/22 10:32:56;;;;;;;8.90;5.03;;;;;;;5.17;65.61;101882.78;10349547;28;20466;-81
2023/11/22 10:38:02;;;;;;;8.32;5.05;;;;;;;5.40;66.68;101883.75;10380557;28;20053;-81
2023/11/22 10:43:06;;;;;;;10.85;4.93;;;;;;;4.95;64.89;101869.28;10377583;28;20505;-81
2023/11/22 10:48:12;;;;;;;6.50;4.32;;;;;;;5.21;61.52;101871.09;10371562;28;20069;-82
2023/11/22 10:53:22;;;;;;;4.93;3.67;;;;;;;5.23;62.18;101868.38;10368062;28;20045;-79
2023/11/22 10:58:28;;;;;;;4.07;3.42;;;;;;;5.36;61.67;101858.16;10366950;28;20037;-80
2023/11/22 11:03:39;;;;;;;4.80;2.33;;;;;;;5.36;58.79;101866.16;10385777;28;20049;-80
2023/11/22 11:08:46;;;;;;;3.58;1.95;;;;;;;5.33;56.42;101848.47;10385087;28;20060;-80
2023/11/22 11:13:50;;;;;;;3.40;1.73;;;;;;;5.40;54.57;101852.66;10361461;28;20068;-81
2023/11/22 11:18:55;;;;;;;4.32;2.80;;;;;;;5.10;50.78;101832.41;10370476;28;20056;-81
2023/11/22 11:24:02;;;;;;;4.35;1.75;;;;;;;5.36;51.97;101844.84;10376292;28;20045;-81
2023/11/22 11:29:07;;;;;;;4.28;1.98;;;;;;;5.52;50.83;101834.50;10385234;28;20052;-82
2023/11/22 11:34:12;;;;;;;2.88;1.88;;;;;;;5.83;49.84;101819.06;10392240;28;20049;-82
2023/11/22 11:39:15;;;;;;;2.10;1.90;;;;;;;5.96;47.89;101814.13;10387021;28;20053;-82
2023/11/22 11:44:19;;;;;;;3.97;1.73;;;;;;;6.42;45.74;101814.97;10387497;28;20073;-82
2023/11/22 11:49:24;;;;;;;3.78;1.38;;;;;;;7.58;46.88;101801.03;10392124;28;20087;-81
2023/11/22 11:54:27;;;;;;;3.58;2.65;;;;;;;8.52;42.90;101786.72;10387618;28;20910;-83
2023/11/22 11:59:31;;;;;;;2.85;2.15;;;;;;;8.91;42.07;101756.16;10354438;28;20587;-82
2023/11/22 12:04:36;;;;;;;4.35;2.03;;;;;;;9.32;41.90;101728.94;10351189;28;20053;-80
2023/11/22 12:09:39;;;;;;;2.45;1.85;;;;;;;8.56;41.59;101694.56;10359616;28;20060;-81
2023/11/22 12:14:43;;;;;;;3.50;2.28;;;;;;;7.72;42.25;101691.59;10357213;28;21222;-81
2023/11/22 12:19:48;;;;;;;5.22;2.80;;;;;;;7.08;44.85;101678.59;10396880;28;21122;-80
2023/11/22 12:24:51;;;;;;;6.28;4.53;;;;;;;5.97;49.20;101682.47;10391670;28;20111;-81
2023/11/22 12:29:54;;;;;;;5.45;4.30;;;;;;;5.38;53.83;101696.41;10361640;28;20058;-82
2023/11/22 12:34:59;;;;;;;5.10;3.97;;;;;;;5.47;53.60;101677.38;10353918;28;20053;-83
2023/11/22 12:40:13;;;;;;;3.42;2.78;;;;;;;5.13;53.37;101659.16;10351402;28;20061;-80
2023/11/22 12:45:23;;;;;;;8.45;3.95;;;;;;;5.00;54.45;101654.31;10345291;28;21973;-80
2023/11/22 12:50:38;;;;;;;5.00;3.45;;;;;;;5.34;53.09;101638.81;10360552;28;20067;-81
2023/11/22 12:55:51;;;;;;;3.30;2.88;;;;;;;5.83;49.74;101640.38;10371978;28;20045;-82
2023/11/22 13:01:00;;;;;;;4.40;2.92;;;;;;;5.97;48.42;101658.47;10380985;28;20103;-81
2023/11/22 13:06:05;;;;;;;3.45;2.63;;;;;;;6.11;47.55;101677.44;10375684;28;20041;-80
2023/11/22 13:11:08;;;;;;;3.70;2.65;;;;;;;5.89;47.32;101647.25;10335834;28;20512;-81
2023/11/22 13:16:16;;;;;;;4.13;2.70;;;;;;;5.64;47.23;101658.06;10363358;28;20045;-82
2023/11/22 13:21:22;;;;;;;6.47;2.53;;;;;;;5.39;47.31;101667.03;10371029;28;20064;-80
2023/11/22 13:26:26;;;;;;;3.58;2.92;;;;;;;5.48;47.30;101671.97;10379679;28;20073;-82
2023/11/22 13:31:29;;;;;;;5.28;2.80;;;;;;;5.43;48.77;101683.75;10355203;28;20386;-82
2023/11/22 13:36:34;;;;;;;2.50;2.30;;;;;;;5.36;48.85;101667.16;10361918;28;20140;-81
2023/11/22 13:41:37;;;;;;;3.20;2.42;;;;;;;5.04;49.60;101671.03;10358378;28;20053;-83
2023/11/22 13:46:40;;;;;;;6.22;2.63;;;;;;;4.70;50.01;101666.06;10337316;28;20053;-83
2023/11/22 13:51:44;;;;;;;2.40;2.20;;;;;;;4.47;51.97;101678.41;10349538;28;21159;-83
2023/11/22 13:56:47;;;;;;;3.50;2.38;;;;;;;4.55;52.16;101686.97;10360333;28;20116;-82
2023/11/22 14:01:51;;;;;;;4.28;2.95;;;;;;;4.54;51.88;101687.88;10345688;28;20697;-84
2023/11/22 14:06:57;;;;;;;4.28;2.60;;;;;;;4.68;50.42;101692.72;10344729;28;20049;-84
2023/11/22 14:11:59;;;;;;;3.47;2.60;;;;;;;4.42;51.12;101706.09;10365869;28;20060;-81
2023/11/22 14:17:03;;;;;;;4.57;2.55;;;;;;;4.26;50.24;101701.28;10358161;28;20437;-84
2023/11/22 14:22:08;;;;;;;6.22;2.58;;;;;;;4.04;51.06;101693.13;10378755;28;20056;-81
2023/11/22 14:27:14;;;;;;;4.60;2.63;;;;;;;3.93;51.64;101695.28;10419978;28;20041;-82
2023/11/22 14:32:17;;;;;;;5.75;3.45;;;;;;;3.81;52.19;101696.53;10429415;28;20116;-81
2023/11/22 14:37:21;;;;;;;5.40;3.00;;;;;;;3.73;52.20;101691.47;10398165;28;20041;-83
2023/11/22 14:42:24;;;;;;;6.13;2.83;;;;;;;3.66;53.19;101676.63;10391615;28;20045;-84
2023/11/22 14:47:30;;;;;;;4.28;2.85;;;;;;;3.72;53.00;101662.28;10391991;28;20049;-83
2023/11/22 14:52:36;;;;;;;4.43;3.17;;;;;;;3.58;53.43;101646.78;10367634;28;20429;-86
2023/11/22 14:57:40;;;;;;;5.60;4.07;;;;;;;3.56;54.62;101635.31;10351181;28;20184;-85
2023/11/22 15:02:47;;;;;;;5.63;3.67;;;;;;;3.50;56.90;101639.03;10354577;28;20493;-86
2023/11/22 15:07:55;;;;;;;7.72;4.45;;;;;;;3.57;57.75;101655.69;10365619;28;20045;-83
2023/11/22 15:12:58;;;;;;;6.85;3.97;;;;;;;3.54;58.08;101649.56;10377707;28;20105;-83
2023/11/22 15:18:01;;;;;;;10.30;4.53;;;;;;;3.29;59.82;101671.56;10365251;28;20072;-83
2023/11/22 15:23:06;;;;;;;7.72;4.57;;;;;;;3.35;60.87;101667.91;10332663;28;20793;-83
2023/11/22 15:28:11;;;;;;;7.38;5.35;;;;;;;3.18;61.92;101674.59;10318089;28;20156;-81
2023/11/22 15:33:14;;;;;;;7.45;4.85;;;;;;;2.88;63.56;101683.41;10325047;28;20049;-85
2023/11/22 15:38:18;;;;;;;9.38;4.78;;;;;;;3.15;61.97;101672.00;10362433;28;20227;-82
2023/11/22 15:43:21;;;;;;;9.38;4.32;;;;;;;2.93;61.04;101642.53;10376065;28;20053;-80
2023/11/22 15:48:25;;;;;;;8.50;4.82;;;;;;;3.25;60.71;101646.03;10376986;28;20045;-80
2023/11/22 15:53:29;;;;;;;7.25;4.68;;;;;;;3.19;59.67;101668.34;10377949;28;20049;-83
2023/11/22 15:58:33;;;;;;;7.40;4.18;;;;;;;3.06;58.06;101641.28;10380575;28;21208;-83
2023/11/22 16:03:35;;;;;;;9.73;3.67;;;;;;;3.05;56.53;101625.41;10385176;28;22483;-83
2023/11/22 16:08:41;;;;;;;7.30;4.22;;;;;;;2.68;57.05;101623.81;10382922;28;20099;-84
2023/11/22 16:13:45;;;;;;;5.82;3.65;;;;;;;2.93;56.17;101592.09;10362283;28;20140;-82
2023/11/22 16:18:48;;;;;;;7.70;4.50;;;;;;;3.01;58.13;101597.19;10368077;28;20042;-81
2023/11/22 16:23:52;;;;;;;12.23;5.00;;;;;;;2.86;59.38;101584.41;10372871;28;20628;-84
2023/11/22 16:28:56;;;;;;;7.60;5.05;;;;;;;3.00;59.54;101590.16;10365591;28;20042;-83
2023/11/22 16:34:01;;;;;;;6.95;4.28;;;;;;;2.94;59.43;101588.56;10371965;28;20045;-85
2023/11/22 16:39:07;;;;;;;7.47;5.07;;;;;;;2.94;59.15;101588.56;10347608;28;20041;-81
2023/11/22 16:44:27;;;;;;;4.88;3.10;;;;;;;2.71;59.83;101572.44;10378329;28;20046;-83
2023/11/22 16:49:30;;;;;;;5.90;4.28;;;;;;;2.67;60.20;101566.34;10355232;28;20057;-82
2023/11/22 16:54:38;;;;;;;7.35;4.30;;;;;;;2.73;59.68;101568.81;10347869;28;20686;-83
2023/11/22 16:59:41;;;;;;;7.78;4.82;;;;;;;2.78;59.90;101558.09;10367154;28;20721;-83
2023/11/22 17:04:46;;;;;;;7.50;3.22;;;;;;;2.56;59.98;101552.53;10368869;28;20080;-82
2023/11/22 17:09:50;;;;;;;7.57;4.95;;;;;;;2.68;59.86;101554.81;10376616;28;20175;-83
2023/11/22 17:14:53;;;;;;;9.23;4.97;;;;;;;2.80;60.03;101543.84;10352069;28;20575;-82
2023/11/22 17:19:57;;;;;;;6.60;4.53;;;;;;;2.94;60.06;101543.44;10356934;28;20115;-81
2023/11/22 17:25:08;;;;;;;5.90;4.18;;;;;;;2.75;59.85;101556.38;10375016;28;20059;-81
2023/11/22 17:30:12;;;;;;;8.18;4.47;;;;;;;2.74;60.25;101552.00;10373146;28;20052;-82
2023/11/22 17:35:15;;;;;;;4.85;3.92;;;;;;;2.84;59.21;101537.53;10364710;28;20480;-82
2023/11/22 17:40:20;;;;;;;7.63;4.20;;;;;;;2.87;58.41;101525.09;10346371;28;20061;-81
2023/11/22 17:45:23;;;;;;;8.07;4.30;;;;;;;2.81;57.98;101524.34;10368886;28;20460;-82
2023/11/22 17:50:26;;;;;;;13.18;4.60;;;;;;;2.87;57.39;101510.03;10332023;28;20508;-81
2023/11/22 17:55:31;;;;;;;6.25;4.28;;;;;;;2.84;57.56;101495.06;10376222;28;20063;-83
2023/11/22 18:00:34;;;;;;;5.15;4.05;;;;;;;2.58;58.76;101500.31;10418523;28;20068;-80
2023/11/22 18:05:37;;;;;;;6.22;4.97;;;;;;;2.81;58.97;101489.84;10389233;28;20045;-83
2023/11/22 18:10:43;;;;;;;6.72;4.57;;;;;;;2.99;59.08;101476.91;10409810;28;20060;-81
2023/11/22 18:15:49;;;;;;;6.57;4.72;;;;;;;2.69;60.65;101463.72;10412693;28;20540;-83
2023/11/22 18:20:52;;;;;;;7.32;4.07;;;;;;;2.76;59.74;101475.84;10395020;28;20716;-84
2023/11/22 18:25:57;;;;;;;9.40;5.25;;;;;;;3.10;59.77;101472.16;10384963;28;20068;-83
2023/11/22 18:31:00;;;;;;;8.00;4.85;;;;;;;3.14;60.06;101483.53;10391522;28;20102;-85
2023/11/22 18:36:03;;;;;;;7.75;4.75;;;;;;;2.95;60.09;101469.97;10350386;28;20046;-84
2023/11/22 18:41:08;;;;;;;8.25;4.82;;;;;;;2.89;59.83;101471.03;10361040;28;20052;-81
2023/11/22 18:46:11;;;;;;;7.57;4.65;;;;;;;2.88;60.37;101464.00;10400025;28;20041;-80
2023/11/22 18:51:14;;;;;;;7.38;4.97;;;;;;;3.05;60.08;101447.53;10385837;28;20065;-81
2023/11/22 18:56:20;;;;;;;9.90;5.50;;;;;;;3.01;60.18;101441.44;10380506;28;20045;-83
2023/11/22 19:01:23;;;;;;;8.95;5.25;;;;;;;2.92;60.93;101439.09;10382641;28;20089;-81
2023/11/22 19:06:26;;;;;;;8.60;5.47;;;;;;;2.74;61.88;101440.56;10381603;28;20068;-83
2023/11/22 19:11:38;;;;;;;7.18;3.92;;;;;;;2.44;62.92;101452.06;10379923;28;20147;-81
2023/11/22 19:16:44;;;;;;;7.60;4.32;;;;;;;2.64;63.36;101443.53;10382756;28;20046;-85
2023/11/22 19:21:49;;;;;;;9.07;4.65;;;;;;;2.84;63.23;101441.13;10385883;28;20076;-81
2023/11/22 19:26:59;;;;;;;8.13;4.75;;;;;;;2.35;64.66;101424.91;10387114;28;20121;-83
2023/11/22 19:32:02;;;;;;;12.43;5.03;;;;;;;2.47;65.52;101414.81;10405477;28;20046;-83
2023/11/22 19:37:07;;;;;;;10.40;6.10;;;;;;;2.60;65.42;101414.44;10425487;28;20037;-82
2023/11/22 19:42:11;;;;;;;11.70;5.40;;;;;;;2.68;65.35;101400.06;10373431;28;20152;-82
2023/11/22 19:47:14;;;;;;;13.15;5.82;;;;;;;2.83;65.04;101395.13;10409817;28;20076;-83
2023/11/22 19:52:17;;;;;;;12.85;6.30;;;;;;;2.81;65.25;101396.97;10384859;28;20059;-81
2023/11/22 19:57:50;;;;;;;14.15;6.47;;;;;;;3.05;65.02;101382.03;10397825;28;20053;-81
2023/11/22 20:02:54;;;;;;;11.30;5.93;;;;;;;2.93;64.90;101377.09;10398714;28;20049;-84
2023/11/22 20:08:00;;;;;;;9.57;5.90;;;;;;;3.15;64.32;101377.25;10398789;28;20332;-81
2023/11/22 20:13:04;;;;;;;12.63;5.68;;;;;;;3.13;64.17;101359.66;10371247;28;20052;-86
2023/11/22 20:18:09;;;;;;;21.52;6.20;;;;;;;2.99;64.62;101349.47;10380139;28;20064;-84
2023/11/22 20:23:16;;;;;;;8.48;4.57;;;;;;;3.05;64.03;101367.88;10368609;28;20061;-86
2023/11/22 20:28:21;;;;;;;9.95;5.75;;;;;;;3.18;64.01;101374.50;10354865;28;20703;-84
2023/11/22 20:33:24;;;;;;;11.13;6.75;;;;;;;3.24;63.90;101379.59;10394413;28;20057;-81
2023/11/22 20:38:28;;;;;;;18.05;5.68;;;;;;;3.25;63.70;101356.56;10398600;28;20049;-85
2023/11/22 20:43:32;;;;;;;10.30;5.90;;;;;;;3.27;64.06;101360.03;10384875;28;20103;-84
2023/11/22 20:48:35;;;;;;;8.52;5.40;;;;;;;3.26;63.94;101355.63;10396419;28;20045;-84
2023/11/22 20:53:38;;;;;;;7.55;4.72;;;;;;;3.18;64.21;101370.97;10388269;28;20180;-85
2023/11/22 20:58:43;;;;;;;10.80;6.05;;;;;;;3.14;64.12;101378.19;10392366;28;20054;-84
2023/11/22 21:03:46;;;;;;;11.30;5.63;;;;;;;3.48;63.37;101372.56;10377597;28;20049;-85
2023/11/22 21:08:49;;;;;;;13.82;6.90;;;;;;;3.30;63.68;101367.03;10374011;28;20428;-82
2023/11/22 21:13:56;;;;;;;10.52;5.28;;;;;;;3.35;63.80;101335.88;10381017;28;20052;-82
2023/11/22 21:19:00;;;;;;;10.23;6.05;;;;;;;3.39;63.33;101334.81;10383769;28;20064;-82
2023/11/22 21:24:04;;;;;;;10.98;6.43;;;;;;;3.69;63.31;101325.72;10380730;28;20060;-82
2023/11/22 21:29:09;;;;;;;10.23;5.32;;;;;;;3.57;62.85;101325.34;10408308;28;20046;-84
2023/11/22 21:34:12;;;;;;;9.57;4.95;;;;;;;3.55;63.21;101309.44;10421437;28;20049;-85
2023/11/22 21:39:17;;;;;;;12.95;7.03;;;;;;;3.50;63.22;101298.09;10383077;28;20052;-84
2023/11/22 21:44:22;;;;;;;11.93;5.97;;;;;;;3.73;62.54;101306.09;10395627;28;20080;-84
2023/11/22 21:49:25;;;;;;;10.32;5.88;;;;;;;3.56;62.92;101291.69;10374120;28;20053;-84
2023/11/22 21:54:28;;;;;;;9.10;5.35;;;;;;;3.68;62.15;101270.84;10394091;28;20128;-84
2023/11/22 22:00:04;;;;;;;9.35;5.15;;;;;;;3.87;61.40;101271.03;10374083;28;20042;-82
2023/11/22 22:05:08;;;;;;;6.10;3.72;;;;;;;3.60;62.26;101278.25;10413856;28;20042;-84
2023/11/22 22:10:14;;;;;;;7.57;4.30;;;;;;;3.58;62.75;101256.19;10390141;28;20041;-84
2023/11/22 22:15:20;;;;;;;9.93;5.40;;;;;;;3.53;63.14;101266.13;10380495;28;21153;-82
2023/11/22 22:20:25;;;;;;;12.48;5.40;;;;;;;3.27;63.08;101244.06;10392776;28;20754;-83
2023/11/22 22:25:28;;;;;;;9.90;6.30;;;;;;;3.88;62.34;101224.88;10362258;28;20052;-81
2023/11/22 22:30:33;;;;;;;8.80;4.70;;;;;;;3.67;63.16;101215.09;10375959;28;20053;-83
2023/11/22 22:35:36;;;;;;;13.15;6.65;;;;;;;3.79;62.81;101187.19;10372529;28;20053;-82
2023/11/22 22:40:39;;;;;;;12.98;5.60;;;;;;;3.81;63.41;101172.88;10363730;28;20525;-81
2023/11/22 22:45:43;;;;;;;11.25;6.10;;;;;;;3.82;63.84;101171.97;10373016;28;20406;-82
2023/11/22 22:50:47;;;;;;;12.38;6.45;;;;;;;3.84;64.53;101178.09;10381798;28;20176;-81
2023/11/22 22:55:51;;;;;;;14.32;6.60;;;;;;;3.93;64.81;101163.56;10394192;28;20060;-83
2023/11/22 23:00:56;;;;;;;14.45;7.60;;;;;;;3.97;64.96;101151.88;10386902;28;20064;-84
2023/11/22 23:06:00;;;;;;;10.55;6.95;;;;;;;3.73;66.83;101162.59;10369471;28;20068;-84
2023/11/22 23:11:05;;;;;;;17.10;8.88;;;;;;;3.78;67.93;101165.03;10383628;28;20170;-83
2023/11/22 23:16:09;;;;;;;14.45;8.57;;;;;;;3.68;68.99;101175.19;10360645;28;20117;-82
2023/11/22 23:21:16;;;;;;;16.40;7.88;;;;;;;3.83;70.63;101151.56;10334904;28;20421;-84
2023/11/22 23:26:19;;;;;;;11.45;6.38;;;;;;;3.67;72.64;101148.66;10326803;28;20052;-83
2023/11/22 23:31:23;;;;;;;15.45;8.55;;;;;;;3.53;75.24;101133.28;10335637;28;20053;-82